Time;durP1;ratioP1;P1;durP2;ratioP2;P2;SDS_P1;SDS_P2;PMS_P1;PMS_P2;Temp;Humidity;BMP_temperature;BMP_pressure;BME280_temperature;BME280_humidity;BME280_pressure;Samples;Min_cycle;Max_cycle;Signal;HPM_P1;HPM_P2
2020/12/04 00:02:12;;;;;;;40.65;17.60;;;1.70;91.60;;;;;;5034629;28;20107;-73
2020/12/04 00:04:38;;;;;;;42.30;18.58;;;1.70;91.80;;;;;;5034591;28;20456;-73
2020/12/04 00:07:04;;;;;;;52.65;18.50;;;1.70;91.60;;;;;;5034805;28;20037;-73
2020/12/04 00:09:30;;;;;;;44.42;17.67;;;1.70;91.60;;;;;;5034769;28;20025;-73
2020/12/04 00:11:56;;;;;;;47.53;18.13;;;1.70;91.70;;;;;;5034340;28;20021;-73
2020/12/04 00:14:21;;;;;;;35.63;13.25;;;1.70;91.70;;;;;;5034710;28;20032;-73
2020/12/04 00:16:48;;;;;;;46.15;16.30;;;1.70;91.60;;;;;;5034792;28;20035;-73
2020/12/04 00:19:13;;;;;;;53.85;19.25;;;1.70;91.60;;;;;;5033354;28;20076;-73
2020/12/04 00:21:40;;;;;;;45.67;17.67;;;1.70;91.60;;;;;;5033151;28;20464;-73
2020/12/04 00:24:06;;;;;;;37.70;15.57;;;1.70;91.60;;;;;;5032967;28;20060;-73
2020/12/04 00:26:38;;;;;;;42.90;15.40;;;1.70;91.70;;;;;;5034411;28;20036;-73
2020/12/04 00:29:05;;;;;;;38.55;15.35;;;1.70;91.70;;;;;;5033970;28;20034;-73
2020/12/04 00:31:31;;;;;;;42.78;16.60;;;1.70;91.70;;;;;;5034675;28;20446;-73
2020/12/04 00:33:57;;;;;;;48.92;17.13;;;1.70;91.80;;;;;;5034386;28;20034;-73
2020/12/04 00:36:22;;;;;;;41.03;16.75;;;1.80;91.80;;;;;;5033046;28;20430;-73
2020/12/04 00:38:48;;;;;;;46.58;18.42;;;1.80;91.80;;;;;;5032951;28;20049;-73
2020/12/04 00:41:14;;;;;;;45.38;16.75;;;1.80;91.80;;;;;;5033716;28;20033;-73
2020/12/04 00:43:40;;;;;;;41.25;15.98;;;1.80;91.80;;;;;;5033967;28;20491;-73
2020/12/04 00:46:05;;;;;;;38.10;15.88;;;1.80;91.70;;;;;;5032745;28;20102;-73
2020/12/04 00:48:31;;;;;;;48.33;18.10;;;1.70;91.70;;;;;;5034206;28;20025;-73
2020/12/04 00:50:57;;;;;;;41.15;16.48;;;1.70;91.80;;;;;;5033950;28;20029;-74
2020/12/04 00:53:22;;;;;;;46.65;16.75;;;1.70;91.70;;;;;;5034038;28;20100;-73
2020/12/04 00:55:49;;;;;;;41.10;15.75;;;1.70;91.70;;;;;;5033980;28;20463;-73
2020/12/04 00:58:15;;;;;;;40.40;16.38;;;1.70;91.80;;;;;;5033800;28;20534;-73
2020/12/04 01:00:41;;;;;;;41.70;16.00;;;1.70;91.80;;;;;;5032815;28;20112;-73
2020/12/04 01:03:06;;;;;;;46.70;18.42;;;1.70;91.60;;;;;;5033838;28;20049;-73
2020/12/04 01:05:32;;;;;;;42.33;17.52;;;1.70;91.60;;;;;;5033554;28;20029;-73
2020/12/04 01:07:58;;;;;;;46.55;18.75;;;1.70;91.70;;;;;;5033823;28;20475;-73
2020/12/04 01:10:23;;;;;;;53.92;18.25;;;1.70;91.70;;;;;;5033864;28;20029;-74
2020/12/04 01:12:49;;;;;;;57.80;21.98;;;1.60;91.60;;;;;;5033678;28;20025;-73
2020/12/04 01:15:15;;;;;;;59.20;21.45;;;1.60;91.60;;;;;;5032539;28;20124;-73
2020/12/04 01:17:40;;;;;;;68.80;25.05;;;1.60;91.70;;;;;;5033696;28;20404;-73
2020/12/04 01:20:07;;;;;;;56.35;21.95;;;1.60;91.80;;;;;;5033755;28;20029;-73
2020/12/04 01:22:32;;;;;;;53.20;19.10;;;1.60;92.00;;;;;;5033501;28;20026;-73
2020/12/04 01:24:58;;;;;;;57.80;20.88;;;1.60;91.90;;;;;;5034129;28;20133;-73
2020/12/04 01:27:24;;;;;;;50.13;17.77;;;1.60;91.90;;;;;;5037249;28;20033;-73
2020/12/04 01:29:50;;;;;;;56.28;21.20;;;1.60;91.90;;;;;;5039828;28;20032;-73
2020/12/04 01:32:16;;;;;;;45.03;18.95;;;1.60;91.90;;;;;;5038400;28;20415;-73
2020/12/04 01:34:41;;;;;;;74.78;21.60;;;1.60;91.90;;;;;;5037849;28;20083;-73
2020/12/04 01:37:07;;;;;;;73.70;22.05;;;1.60;91.80;;;;;;5037646;28;20064;-73
2020/12/04 01:39:33;;;;;;;91.47;28.63;;;1.60;91.80;;;;;;5037976;28;20033;-73
2020/12/04 01:41:59;;;;;;;61.67;21.58;;;1.60;91.90;;;;;;5037487;28;20535;-74
2020/12/04 01:44:24;;;;;;;72.53;25.00;;;1.50;91.80;;;;;;5037621;28;20113;-73
2020/12/04 01:46:51;;;;;;;58.30;20.23;;;1.50;91.90;;;;;;5037592;28;20030;-73
2020/12/04 01:49:17;;;;;;;98.05;26.83;;;1.50;92.00;;;;;;5037590;28;20040;-73
2020/12/04 01:51:42;;;;;;;73.90;22.77;;;1.50;92.00;;;;;;5037329;28;20029;-73
2020/12/04 01:54:09;;;;;;;68.15;22.73;;;1.50;92.00;;;;;;5036091;28;20033;-73
2020/12/04 01:56:38;;;;;;;106.70;30.50;;;1.50;92.00;;;;;;5037024;28;20379;-73
2020/12/04 01:59:07;;;;;;;89.80;27.50;;;1.50;92.10;;;;;;5037384;28;20030;-73
2020/12/04 02:01:38;;;;;;;84.57;26.30;;;1.50;92.20;;;;;;5037112;28;20049;-73
2020/12/04 02:04:07;;;;;;;78.97;24.58;;;1.50;92.20;;;;;;5036682;28;20104;-73
2020/12/04 02:07:02;;;;;;;78.97;25.77;;;1.50;92.20;;;;;;5037055;28;20026;-73
2020/12/04 02:09:32;;;;;;;88.50;29.33;;;1.50;92.10;;;;;;5037066;28;20048;-73
2020/12/04 02:12:05;;;;;;;84.25;27.40;;;1.50;92.00;;;;;;5037020;28;20029;-73
2020/12/04 02:14:33;;;;;;;66.50;23.33;;;1.50;92.10;;;;;;5035659;28;20022;-73
2020/12/04 02:17:03;;;;;;;75.22;25.48;;;1.50;92.10;;;;;;5037383;28;20040;-73
2020/12/04 02:19:39;;;;;;;87.03;25.95;;;1.50;92.10;;;;;;5037047;28;20100;-73
2020/12/04 02:22:05;;;;;;;84.00;23.95;;;1.50;92.10;;;;;;5036898;28;20551;-73
2020/12/04 02:24:31;;;;;;;98.45;29.73;;;1.50;92.20;;;;;;5036789;28;20073;-73
2020/12/04 02:26:57;;;;;;;103.03;27.98;;;1.50;92.30;;;;;;5036646;28;20068;-74
2020/12/04 02:29:25;;;;;;;97.07;26.13;;;1.50;92.30;;;;;;5037224;28;20065;-73
2020/12/04 02:31:51;;;;;;;99.88;27.48;;;1.50;92.20;;;;;;5036432;28;20479;-73
2020/12/04 02:34:17;;;;;;;78.82;22.15;;;1.50;92.10;;;;;;5036613;28;20048;-73
2020/12/04 02:36:43;;;;;;;122.75;28.25;;;1.50;92.20;;;;;;5036207;28;20468;-73
2020/12/04 02:39:08;;;;;;;118.40;28.42;;;1.50;92.10;;;;;;5036363;28;20065;-73
2020/12/04 02:41:34;;;;;;;118.03;31.15;;;1.50;92.10;;;;;;5035193;28;20059;-73
2020/12/04 02:44:03;;;;;;;113.07;28.83;;;1.40;92.10;;;;;;5035556;28;20553;-73
2020/12/04 02:46:28;;;;;;;133.75;34.95;;;1.40;92.10;;;;;;5035015;28;20057;-73
2020/12/04 02:48:54;;;;;;;127.85;33.58;;;1.40;92.30;;;;;;5036332;28;20496;-71
2020/12/04 02:51:20;;;;;;;135.40;30.70;;;1.40;92.50;;;;;;5036283;28;20017;-71
2020/12/04 02:53:46;;;;;;;97.07;26.67;;;1.50;92.50;;;;;;5036225;28;20033;-72
2020/12/04 02:56:17;;;;;;;127.80;32.50;;;1.50;92.40;;;;;;5036168;28;20033;-72
2020/12/04 02:58:42;;;;;;;143.40;32.60;;;1.50;92.40;;;;;;5035961;28;20025;-72
2020/12/04 03:01:08;;;;;;;92.50;27.58;;;1.50;92.40;;;;;;5036025;28;20624;-72
2020/12/04 03:03:34;;;;;;;189.05;36.67;;;1.40;92.30;;;;;;5034748;28;20025;-72
2020/12/04 03:05:59;;;;;;;120.03;30.45;;;1.40;92.30;;;;;;5035833;28;20033;-73
2020/12/04 03:08:25;;;;;;;162.80;35.40;;;1.50;92.40;;;;;;5017427;28;20123;-74
2020/12/04 03:10:52;;;;;;;112.75;31.10;;;1.40;92.50;;;;;;5035975;28;20030;-73
2020/12/04 03:13:18;;;;;;;127.43;30.40;;;1.50;92.60;;;;;;5033956;28;20376;-72
2020/12/04 03:15:44;;;;;;;102.00;27.48;;;1.50;92.50;;;;;;5035467;28;20029;-73
2020/12/04 03:18:09;;;;;;;136.05;31.45;;;1.50;92.40;;;;;;5034828;28;20042;-72
2020/12/04 03:20:35;;;;;;;210.93;38.33;;;1.50;92.40;;;;;;5034468;28;20120;-72
2020/12/04 03:23:01;;;;;;;107.70;31.27;;;1.50;92.40;;;;;;5035614;28;20104;-73
2020/12/04 03:25:26;;;;;;;102.60;29.38;;;1.50;92.50;;;;;;5034287;28;20571;-73
2020/12/04 03:27:52;;;;;;;116.35;32.40;;;1.50;92.50;;;;;;5034280;28;20030;-73
2020/12/04 03:30:18;;;;;;;92.47;27.05;;;1.50;92.60;;;;;;5035345;28;20033;-72
2020/12/04 03:32:43;;;;;;;108.40;31.75;;;1.50;92.50;;;;;;5035408;28;20464;-73
2020/12/04 03:35:09;;;;;;;101.68;28.77;;;1.50;92.40;;;;;;5035646;28;20060;-72
2020/12/04 03:37:35;;;;;;;100.30;30.25;;;1.50;92.40;;;;;;5035665;28;20033;-73
2020/12/04 03:40:00;;;;;;;95.15;29.83;;;1.50;92.40;;;;;;5033803;28;20743;-73
2020/12/04 03:42:26;;;;;;;88.03;28.48;;;1.50;92.50;;;;;;5035630;28;20036;-73
2020/12/04 03:44:52;;;;;;;100.28;31.08;;;1.50;92.50;;;;;;5034928;28;20487;-73
2020/12/04 03:47:17;;;;;;;92.82;28.85;;;1.50;92.50;;;;;;5034675;28;20040;-72
2020/12/04 03:49:43;;;;;;;94.05;30.13;;;1.50;92.50;;;;;;5035149;28;20455;-73
2020/12/04 03:52:09;;;;;;;85.55;27.25;;;1.40;92.50;;;;;;5035168;28;20059;-73
2020/12/04 03:54:35;;;;;;;87.40;28.38;;;1.40;92.40;;;;;;5034820;28;20027;-73
2020/12/04 03:57:00;;;;;;;98.88;32.58;;;1.40;92.50;;;;;;5035032;28;20124;-73
2020/12/04 03:59:26;;;;;;;92.40;28.10;;;1.40;92.80;;;;;;5034832;28;20072;-73
2020/12/04 04:01:52;;;;;;;119.35;33.92;;;1.50;92.60;;;;;;5034337;28;20087;-73
2020/12/04 04:04:18;;;;;;;107.05;32.28;;;1.50;92.70;;;;;;5034138;28;20033;-73
2020/12/04 04:06:43;;;;;;;96.28;29.88;;;1.50;92.70;;;;;;5035837;28;20029;-73
2020/12/04 04:09:09;;;;;;;105.47;30.77;;;1.50;92.60;;;;;;5035528;28;20029;-73
2020/12/04 04:11:35;;;;;;;105.13;31.08;;;1.50;92.70;;;;;;5035086;28;20025;-73
2020/12/04 04:14:00;;;;;;;117.72;32.97;;;1.50;92.60;;;;;;5034489;28;20365;-73
2020/12/04 04:16:26;;;;;;;94.57;29.50;;;1.50;92.90;;;;;;5033562;28;20040;-73
2020/12/04 04:18:52;;;;;;;73.03;24.25;;;1.50;92.70;;;;;;5034539;28;20030;-73
2020/12/04 04:21:17;;;;;;;99.47;34.72;;;1.50;92.70;;;;;;5034613;28;20114;-73
2020/12/04 04:23:43;;;;;;;107.55;31.98;;;1.50;92.60;;;;;;5034473;28;20026;-74
2020/12/04 04:26:09;;;;;;;123.07;36.55;;;1.50;92.40;;;;;;5034863;28;20190;-73
2020/12/04 04:28:35;;;;;;;104.07;37.15;;;1.50;92.40;;;;;;5034419;28;20138;-73
2020/12/04 04:31:00;;;;;;;109.90;35.80;;;1.50;92.40;;;;;;5034333;28;20448;-73
2020/12/04 04:33:26;;;;;;;94.40;30.15;;;1.50;92.50;;;;;;5033982;28;20139;-73
2020/12/04 04:35:52;;;;;;;86.82;25.88;;;1.50;92.50;;;;;;5033072;28;20037;-73
2020/12/04 04:38:18;;;;;;;121.05;36.85;;;1.40;92.50;;;;;;5032988;28;20025;-74
2020/12/04 04:40:43;;;;;;;93.40;31.80;;;1.40;92.60;;;;;;5034291;28;20464;-73
2020/12/04 04:43:19;;;;;;;99.57;34.58;;;1.50;92.70;;;;;;5034325;28;20087;-73
2020/12/04 04:45:46;;;;;;;;;;;1.50;92.60;;;;;;5033264;28;20088;-73
2020/12/04 04:48:23;;;;;;;;;;;1.50;92.40;;;;;;5034443;28;20358;-73
2020/12/04 04:50:52;;;;;;;96.57;36.00;;;1.40;92.30;;;;;;5034049;28;20003;-74
2020/12/04 04:53:19;;;;;;;93.07;31.92;;;1.40;92.40;;;;;;5033965;28;20030;-73
2020/12/04 04:55:45;;;;;;;86.25;33.03;;;1.30;92.60;;;;;;5033929;28;20444;-74
2020/12/04 04:58:11;;;;;;;170.93;47.33;;;1.30;92.60;;;;;;5032559;28;20049;-73
2020/12/04 05:00:37;;;;;;;232.63;62.63;;;1.30;92.60;;;;;;5033826;28;20029;-74
2020/12/04 05:03:05;;;;;;;121.97;39.70;;;1.30;92.70;;;;;;5033691;28;20045;-74
2020/12/04 05:05:45;;;;;;;119.07;39.83;;;1.40;92.80;;;;;;5033538;28;20029;-73
2020/12/04 05:08:17;;;;;;;88.43;31.08;;;1.40;92.90;;;;;;5032398;28;20120;-74
2020/12/04 05:10:44;;;;;;;97.35;32.03;;;1.40;92.80;;;;;;5032464;28;20384;-74
2020/12/04 05:13:10;;;;;;;90.20;29.92;;;1.40;92.60;;;;;;5033613;28;20022;-74
2020/12/04 05:15:36;;;;;;;101.15;34.30;;;1.40;92.60;;;;;;5032480;28;20030;-74
2020/12/04 05:18:16;;;;;;;83.68;27.08;;;1.40;92.60;;;;;;5033724;28;20080;-72
2020/12/04 05:20:53;;;;;;;83.22;29.50;;;1.30;92.50;;;;;;5033581;28;20029;-72
2020/12/04 05:23:20;;;;;;;78.78;28.05;;;1.30;92.40;;;;;;5033507;28;20017;-73
2020/12/04 05:25:51;;;;;;;86.60;31.33;;;1.30;92.40;;;;;;5033332;28;20464;-73
2020/12/04 05:28:21;;;;;;;84.20;28.90;;;1.30;92.50;;;;;;5033145;28;20112;-73
2020/12/04 05:31:02;;;;;;;113.70;36.22;;;1.30;92.40;;;;;;5033790;28;20036;-73
2020/12/04 05:33:28;;;;;;;78.00;29.90;;;1.20;92.40;;;;;;5033489;28;20029;-74
2020/12/04 05:35:54;;;;;;;86.80;30.08;;;1.20;92.40;;;;;;5032259;28;20037;-74
2020/12/04 05:38:20;;;;;;;86.50;29.63;;;1.20;92.50;;;;;;5033400;28;20021;-74
2020/12/04 05:40:51;;;;;;;87.18;29.05;;;1.20;92.40;;;;;;5033352;28;20119;-74
2020/12/04 05:43:32;;;;;;;84.90;30.40;;;1.10;92.40;;;;;;5033923;28;20028;-74
2020/12/04 05:46:24;;;;;;;83.40;30.92;;;1.20;92.60;;;;;;5031971;28;20099;-74
2020/12/04 05:49:08;;;;;;;91.30;27.88;;;1.20;92.60;;;;;;5033478;28;20500;-74
2020/12/04 05:51:39;;;;;;;86.90;28.80;;;1.20;92.60;;;;;;5031752;28;20053;-74
2020/12/04 05:54:07;;;;;;;86.35;31.15;;;1.20;92.60;;;;;;5033461;28;20076;-74
2020/12/04 05:56:34;;;;;;;116.68;39.75;;;1.20;92.70;;;;;;5033130;28;20034;-75
2020/12/04 05:59:03;;;;;;;118.68;38.53;;;1.20;92.80;;;;;;5038821;28;20022;-74
2020/12/04 06:01:29;;;;;;;91.85;33.53;;;1.30;92.90;;;;;;5041325;28;20046;-76
2020/12/04 06:03:56;;;;;;;120.53;37.88;;;1.30;92.90;;;;;;5043450;28;20032;-75
2020/12/04 06:06:29;;;;;;;106.65;35.83;;;1.30;92.90;;;;;;5042220;28;20065;-75
2020/12/04 06:09:06;;;;;;;102.05;37.10;;;1.40;92.90;;;;;;5043020;28;20049;-75
2020/12/04 06:11:36;;;;;;;99.97;33.08;;;1.40;93.10;;;;;;5042264;28;20036;-74
2020/12/04 06:14:02;;;;;;;104.18;33.83;;;1.40;92.90;;;;;;5045366;28;20033;-77
2020/12/04 06:16:28;;;;;;;96.07;31.33;;;1.40;92.90;;;;;;5036851;28;20034;-74
2020/12/04 06:18:54;;;;;;;65.18;25.83;;;1.40;92.70;;;;;;5037373;28;20091;-73
2020/12/04 06:21:45;;;;;;;85.47;30.85;;;1.40;92.50;;;;;;5037584;28;20025;-73
2020/12/04 06:24:11;;;;;;;100.75;32.92;;;1.40;92.60;;;;;;5037279;28;20033;-73
2020/12/04 06:26:55;;;;;;;101.63;35.80;;;1.40;92.70;;;;;;5035937;28;20042;-74
2020/12/04 06:29:21;;;;;;;71.97;27.45;;;1.40;92.70;;;;;;5038389;28;20072;-75
2020/12/04 06:31:47;;;;;;;81.97;31.40;;;1.40;92.60;;;;;;5043066;28;20152;-72
2020/12/04 06:34:18;;;;;;;79.05;30.48;;;1.40;92.60;;;;;;5037315;28;20029;-75
2020/12/04 06:36:45;;;;;;;70.85;26.73;;;1.40;92.50;;;;;;5036315;28;20468;-76
2020/12/04 06:39:30;;;;;;;84.35;30.85;;;1.40;92.50;;;;;;5036935;28;20097;-76
2020/12/04 06:41:56;;;;;;;70.25;26.65;;;1.40;92.40;;;;;;5047623;28;20029;-76
2020/12/04 06:44:27;;;;;;;88.50;32.83;;;1.30;92.30;;;;;;5045287;28;20037;-69
2020/12/04 06:46:56;;;;;;;106.95;38.53;;;1.40;92.40;;;;;;5037688;28;20411;-74
2020/12/04 06:52:16;;;;;;;88.25;32.55;;;1.40;92.60;;;;;;5048676;28;20063;-74
2020/12/04 06:54:46;;;;;;;121.85;42.13;;;1.40;92.50;;;;;;5052125;28;20029;-75
2020/12/04 06:57:13;;;;;;;104.18;37.83;;;1.30;92.50;;;;;;5050426;28;20021;-74
2020/12/04 06:59:41;;;;;;;96.40;34.08;;;1.40;92.70;;;;;;5048316;28;20116;-73
2020/12/04 07:02:10;;;;;;;123.10;38.20;;;1.40;92.60;;;;;;5043414;28;20053;-74
2020/12/04 07:04:40;;;;;;;102.32;36.33;;;1.40;92.50;;;;;;5041117;28;20029;-75
2020/12/04 07:07:08;;;;;;;106.93;35.50;;;1.40;92.40;;;;;;5043931;28;20038;-74
2020/12/04 07:09:34;;;;;;;90.25;29.70;;;1.30;92.40;;;;;;5042235;28;20053;-75
2020/12/04 07:12:01;;;;;;;116.30;39.15;;;1.30;92.40;;;;;;5037846;28;20029;-74
2020/12/04 07:14:27;;;;;;;101.38;35.90;;;1.30;92.50;;;;;;5042008;28;20475;-75
2020/12/04 07:16:54;;;;;;;120.03;41.83;;;1.30;92.50;;;;;;5051904;28;20021;-74
2020/12/04 07:19:20;;;;;;;87.68;32.35;;;1.30;92.60;;;;;;5035591;28;20491;-74
2020/12/04 07:21:46;;;;;;;104.68;35.15;;;1.30;92.50;;;;;;5036548;28;20052;-73
2020/12/04 07:24:12;;;;;;;112.18;36.15;;;1.40;92.50;;;;;;5051214;28;20025;-74
2020/12/04 07:26:50;;;;;;;106.45;36.13;;;1.40;92.50;;;;;;5047298;28;20376;-74
2020/12/04 07:29:15;;;;;;;104.65;35.17;;;1.30;92.50;;;;;;5035172;28;20031;-74
2020/12/04 07:31:46;;;;;;;109.95;39.20;;;1.30;92.60;;;;;;5037851;28;20395;-74
2020/12/04 07:34:13;;;;;;;100.45;34.17;;;1.40;92.80;;;;;;5041767;28;20025;-75
2020/12/04 07:36:48;;;;;;;105.40;36.47;;;1.40;92.70;;;;;;5049175;28;20029;-75
2020/12/04 07:39:28;;;;;;;97.97;35.85;;;1.40;92.60;;;;;;5034671;28;20030;-74
2020/12/04 07:41:56;;;;;;;99.70;35.50;;;1.40;92.70;;;;;;5045426;28;20128;-73
2020/12/04 07:44:36;;;;;;;79.78;29.40;;;1.50;92.60;;;;;;5040251;28;20116;-73
2020/12/04 07:47:28;;;;;;;99.15;36.45;;;1.50;92.50;;;;;;5045489;28;20044;-73
2020/12/04 07:49:58;;;;;;;94.90;34.78;;;1.50;92.50;;;;;;5036703;28;20488;-73
2020/12/04 07:52:25;;;;;;;89.20;32.63;;;1.40;92.50;;;;;;5041851;28;20074;-79
2020/12/04 07:55:04;;;;;;;74.03;26.95;;;1.50;92.50;;;;;;5053803;28;20036;-75
2020/12/04 07:57:45;;;;;;;80.13;31.58;;;1.50;92.30;;;;;;5045459;28;20035;-74
2020/12/04 08:00:14;;;;;;;76.32;27.17;;;1.40;92.40;;;;;;5033730;28;20484;-76
2020/12/04 08:02:40;;;;;;;77.40;29.05;;;1.40;92.40;;;;;;5041541;28;20053;-75
2020/12/04 08:05:06;;;;;;;83.20;31.38;;;1.40;92.40;;;;;;5042924;28;20045;-75
2020/12/04 08:07:33;;;;;;;80.97;31.58;;;1.40;92.30;;;;;;5033623;28;20080;-75
2020/12/04 08:10:01;;;;;;;81.13;29.10;;;1.40;92.30;;;;;;5032821;28;20129;-75
2020/12/04 08:12:31;;;;;;;67.35;26.50;;;1.40;92.30;;;;;;5033606;28;20029;-75
2020/12/04 08:14:58;;;;;;;85.80;32.45;;;1.40;92.40;;;;;;5032759;28;20409;-76
2020/12/04 08:17:28;;;;;;;86.07;31.58;;;1.30;92.30;;;;;;5031225;28;20025;-76
2020/12/04 08:19:54;;;;;;;79.55;29.98;;;1.30;92.40;;;;;;5032424;28;20056;-75
2020/12/04 08:22:31;;;;;;;69.70;26.52;;;1.30;92.50;;;;;;5032431;28;20047;-75
2020/12/04 08:25:06;;;;;;;62.38;26.25;;;1.40;92.50;;;;;;5031074;28;20030;-76
2020/12/04 08:27:43;;;;;;;68.68;25.88;;;1.30;92.50;;;;;;5032596;28;20340;-75
2020/12/04 08:30:17;;;;;;;63.67;25.25;;;1.40;92.60;;;;;;5032650;28;20052;-76
2020/12/04 08:32:48;;;;;;;65.13;23.48;;;1.40;92.50;;;;;;5032949;28;20125;-75
2020/12/04 08:35:22;;;;;;;64.68;27.45;;;1.40;92.60;;;;;;5038506;28;20053;-76
2020/12/04 08:37:49;;;;;;;63.50;25.50;;;1.40;92.60;;;;;;5043782;28;20022;-76
2020/12/04 08:40:27;;;;;;;67.57;27.70;;;1.40;92.60;;;;;;5040991;28;20026;-75
2020/12/04 08:43:06;;;;;;;59.25;21.88;;;1.50;92.60;;;;;;5051617;28;20056;-75
2020/12/04 08:45:32;;;;;;;69.65;29.40;;;1.50;92.60;;;;;;5037888;28;20065;-75
2020/12/04 08:48:16;;;;;;;62.35;23.77;;;1.50;92.60;;;;;;5034430;28;20438;-76
2020/12/04 08:50:47;;;;;;;54.42;20.25;;;1.50;92.30;;;;;;5034281;28;20084;-75
2020/12/04 08:53:16;;;;;;;56.50;22.48;;;1.50;92.40;;;;;;5034452;28;20029;-76
2020/12/04 08:55:56;;;;;;;57.58;23.77;;;1.50;92.30;;;;;;5032881;28;20085;-76
2020/12/04 08:58:24;;;;;;;51.28;17.52;;;1.50;92.60;;;;;;5034493;28;20049;-76
2020/12/04 09:00:52;;;;;;;49.45;21.80;;;1.50;92.50;;;;;;5032417;28;20025;-76
2020/12/04 09:03:19;;;;;;;45.40;19.65;;;1.60;92.50;;;;;;5032667;28;20025;-76
2020/12/04 09:05:45;;;;;;;49.97;22.52;;;1.60;92.50;;;;;;5032402;28;20026;-75
2020/12/04 09:08:11;;;;;;;48.33;19.83;;;1.60;92.30;;;;;;5032547;28;20037;-76
2020/12/04 09:10:37;;;;;;;36.70;17.73;;;1.60;92.20;;;;;;5032559;28;20121;-76
2020/12/04 09:13:05;;;;;;;52.25;22.42;;;1.60;92.10;;;;;;5033905;28;20105;-76
2020/12/04 09:15:31;;;;;;;56.67;23.73;;;1.50;92.10;;;;;;5032398;28;20088;-76
2020/12/04 09:17:57;;;;;;;51.00;20.98;;;1.50;92.30;;;;;;5034153;28;20029;-76
2020/12/04 09:20:24;;;;;;;49.85;20.02;;;1.60;92.40;;;;;;5032918;28;20025;-77
2020/12/04 09:22:51;;;;;;;47.58;20.25;;;1.60;92.40;;;;;;5033949;28;20022;-77
2020/12/04 09:25:18;;;;;;;44.13;19.42;;;1.60;92.10;;;;;;5033704;28;20448;-77
2020/12/04 09:27:44;;;;;;;67.20;26.45;;;1.60;92.10;;;;;;5033561;28;20464;-77
2020/12/04 09:30:12;;;;;;;51.72;21.15;;;1.60;92.20;;;;;;5033462;28;20040;-77
2020/12/04 09:32:38;;;;;;;51.40;20.52;;;1.60;92.40;;;;;;5033447;28;20387;-77
2020/12/04 09:35:05;;;;;;;58.38;21.65;;;1.60;92.30;;;;;;5033535;28;20025;-76
2020/12/04 09:37:35;;;;;;;67.50;28.52;;;1.70;92.30;;;;;;5032862;28;20472;-76
2020/12/04 09:40:06;;;;;;;42.45;17.92;;;1.60;92.30;;;;;;5032095;28;20490;-77
2020/12/04 09:42:32;;;;;;;58.97;22.83;;;1.70;92.30;;;;;;5033641;28;20411;-77
2020/12/04 09:44:58;;;;;;;45.42;19.83;;;1.70;92.00;;;;;;5032194;28;20032;-76
2020/12/04 09:47:24;;;;;;;63.60;26.38;;;1.70;92.10;;;;;;5035989;28;20087;-76
2020/12/04 09:49:51;;;;;;;55.60;24.05;;;1.60;92.10;;;;;;5037279;28;20022;-76
2020/12/04 09:52:18;;;;;;;75.10;32.63;;;1.70;92.20;;;;;;5037153;28;20017;-76
2020/12/04 09:54:45;;;;;;;53.72;23.17;;;1.70;92.20;;;;;;5038756;28;20031;-76
2020/12/04 09:57:12;;;;;;;47.05;18.65;;;1.70;92.20;;;;;;5039691;28;20033;-72
2020/12/04 09:59:38;;;;;;;58.70;25.23;;;1.70;92.00;;;;;;5035408;28;20050;-74
2020/12/04 10:02:05;;;;;;;45.80;19.00;;;1.60;92.00;;;;;;5048410;28;20045;-74
2020/12/04 10:04:31;;;;;;;60.00;24.73;;;1.70;92.00;;;;;;5048887;28;20021;-70
2020/12/04 10:06:58;;;;;;;54.38;23.40;;;1.70;92.10;;;;;;5045772;28;20052;-74
2020/12/04 10:09:25;;;;;;;49.78;22.77;;;1.70;92.20;;;;;;5039531;28;20391;-70
2020/12/04 10:11:51;;;;;;;48.70;22.70;;;1.70;92.00;;;;;;5038026;28;20761;-71
2020/12/04 10:14:17;;;;;;;46.58;21.08;;;1.80;92.10;;;;;;5039640;28;20036;-71
2020/12/04 10:16:45;;;;;;;53.22;22.70;;;1.90;92.10;;;;;;5047050;28;20041;-72
2020/12/04 10:19:12;;;;;;;58.28;26.65;;;1.90;92.00;;;;;;5038153;28;20112;-72
2020/12/04 10:21:38;;;;;;;44.72;19.42;;;1.90;92.00;;;;;;5045043;28;20391;-72
2020/12/04 10:24:06;;;;;;;44.88;18.42;;;2.00;91.90;;;;;;5074009;28;20081;-73
2020/12/04 10:26:36;;;;;;;59.42;22.55;;;1.90;91.70;;;;;;5045333;28;20365;-71
2020/12/04 10:29:02;;;;;;;48.47;21.58;;;2.00;91.70;;;;;;5055000;28;20032;-72
2020/12/04 10:31:28;;;;;;;45.95;19.60;;;1.90;91.50;;;;;;5040080;28;20025;-72
2020/12/04 10:33:53;;;;;;;68.45;32.15;;;1.90;91.50;;;;;;5043918;28;20580;-74
2020/12/04 10:36:19;;;;;;;60.80;27.80;;;1.90;91.60;;;;;;5045662;28;20498;-73
2020/12/04 10:38:45;;;;;;;55.25;25.63;;;1.90;91.60;;;;;;5041370;28;20041;-74
2020/12/04 10:41:11;;;;;;;62.47;25.65;;;1.90;91.50;;;;;;5044292;28;20051;-75
2020/12/04 10:43:37;;;;;;;47.45;19.70;;;1.90;91.30;;;;;;5037368;28;20479;-73
2020/12/04 10:46:03;;;;;;;50.05;22.15;;;1.90;91.40;;;;;;5035896;28;20041;-75
2020/12/04 10:48:29;;;;;;;49.67;22.98;;;1.90;91.40;;;;;;5045442;28;20530;-73
2020/12/04 10:50:55;;;;;;;52.15;23.15;;;1.90;91.50;;;;;;5059684;28;20116;-74
2020/12/04 10:53:24;;;;;;;51.03;23.33;;;1.90;91.40;;;;;;5055572;28;20048;-74
2020/12/04 10:55:52;;;;;;;44.92;17.77;;;1.90;91.50;;;;;;5055839;28;20033;-73
2020/12/04 10:58:18;;;;;;;44.38;19.88;;;2.00;91.30;;;;;;5056655;28;20048;-72
2020/12/04 11:00:53;;;;;;;56.55;24.02;;;1.90;91.10;;;;;;5066292;28;20463;-73
2020/12/04 11:05:56;;;;;;;45.90;21.83;;;1.90;91.20;;;;;;5054614;28;20037;-73
2020/12/04 11:08:22;;;;;;;46.15;21.67;;;1.90;91.20;;;;;;5052362;28;20036;-74
2020/12/04 11:10:51;;;;;;;51.72;23.20;;;1.90;91.20;;;;;;5054140;28;20099;-73
2020/12/04 11:13:17;;;;;;;43.92;22.40;;;1.90;91.30;;;;;;5054401;28;20024;-72
2020/12/04 11:15:43;;;;;;;46.35;21.50;;;1.90;91.30;;;;;;5037099;28;20021;-73
2020/12/04 11:18:08;;;;;;;63.42;29.33;;;1.90;91.20;;;;;;5039560;28;20552;-73
2020/12/04 11:20:34;;;;;;;73.45;28.75;;;1.90;91.10;;;;;;5039433;28;20032;-72
2020/12/04 11:23:00;;;;;;;75.53;30.77;;;1.90;91.30;;;;;;5035882;28;20076;-76
2020/12/04 11:25:26;;;;;;;52.53;23.13;;;1.90;91.30;;;;;;5043589;28;20041;-74
2020/12/04 11:27:52;;;;;;;60.25;25.60;;;1.90;91.20;;;;;;5039444;28;20090;-75
2020/12/04 11:30:20;;;;;;;57.60;22.58;;;1.90;91.30;;;;;;5042787;28;20108;-74
2020/12/04 11:32:47;;;;;;;60.35;28.48;;;1.90;91.20;;;;;;5042093;28;20035;-74
2020/12/04 11:35:15;;;;;;;57.42;25.35;;;1.90;91.30;;;;;;5048862;28;20467;-85
2020/12/04 11:37:43;;;;;;;54.13;24.92;;;2.00;91.30;;;;;;5049563;28;20387;-70
2020/12/04 11:40:11;;;;;;;42.63;18.45;;;2.00;91.10;;;;;;5045367;28;20029;-72
2020/12/04 11:42:41;;;;;;;48.10;22.88;;;2.00;91.00;;;;;;5043502;28;20403;-76
2020/12/04 11:45:09;;;;;;;60.05;26.83;;;1.90;90.90;;;;;;5038066;28;20135;-69
2020/12/04 11:47:38;;;;;;;51.70;20.23;;;1.90;91.00;;;;;;5049150;28;20079;-69
2020/12/04 11:50:14;;;;;;;56.35;25.08;;;1.90;91.00;;;;;;5035875;28;20542;-68
2020/12/04 11:52:40;;;;;;;58.90;25.10;;;1.90;91.20;;;;;;5050818;28;20300;-69
2020/12/04 11:55:08;;;;;;;49.88;21.33;;;2.00;91.30;;;;;;5052920;28;20095;-68
2020/12/04 11:57:34;;;;;;;43.70;18.50;;;2.00;91.10;;;;;;5053785;28;20103;-70
2020/12/04 12:00:00;;;;;;;46.70;19.23;;;2.00;91.10;;;;;;5043805;28;20503;-68
2020/12/04 12:02:27;;;;;;;50.22;20.90;;;2.00;91.00;;;;;;5035239;28;20483;-66
2020/12/04 12:04:53;;;;;;;71.18;26.90;;;2.00;90.90;;;;;;5053762;28;20025;-67
2020/12/04 12:07:19;;;;;;;92.80;37.88;;;1.90;90.90;;;;;;5053765;28;20119;-68
2020/12/04 12:09:47;;;;;;;62.65;26.08;;;1.90;91.00;;;;;;5053045;28;20455;-69
2020/12/04 12:12:15;;;;;;;63.22;26.00;;;2.00;91.00;;;;;;5046486;28;20032;-74
2020/12/04 12:14:41;;;;;;;46.17;20.52;;;1.90;90.80;;;;;;5037618;28;20036;-71
2020/12/04 12:17:06;;;;;;;54.08;23.23;;;1.90;90.80;;;;;;5041458;28;20029;-68
2020/12/04 12:19:34;;;;;;;72.53;26.80;;;1.90;90.80;;;;;;5039568;28;20029;-68
2020/12/04 12:22:00;;;;;;;66.07;27.08;;;1.90;90.80;;;;;;5042750;28;20021;-69
2020/12/04 12:24:25;;;;;;;65.72;25.23;;;1.90;90.90;;;;;;5040991;28;20462;-71
2020/12/04 12:26:51;;;;;;;74.35;29.83;;;1.90;90.90;;;;;;5050334;28;20165;-74
2020/12/04 12:29:17;;;;;;;75.97;30.25;;;1.90;91.00;;;;;;5033943;28;20033;-71
2020/12/04 12:31:42;;;;;;;61.80;24.27;;;1.90;91.00;;;;;;5041006;28;20395;-71
2020/12/04 12:34:08;;;;;;;59.30;23.88;;;1.90;90.90;;;;;;5053118;28;20028;-69
2020/12/04 12:36:34;;;;;;;66.47;26.10;;;1.80;90.80;;;;;;5037199;28;20474;-71
2020/12/04 12:39:00;;;;;;;100.88;40.45;;;1.80;90.80;;;;;;5048708;28;20025;-68
2020/12/04 12:41:26;;;;;;;92.72;34.50;;;1.80;90.60;;;;;;5042555;28;20033;-71
2020/12/04 12:43:52;;;;;;;86.43;30.80;;;1.70;90.80;;;;;;5036854;28;20037;-72
2020/12/04 12:46:18;;;;;;;78.63;32.55;;;1.70;91.00;;;;;;5038999;28;20037;-69